Oscoda, MI

12:57 PM EDT on May 26, 2018 (GMT -0400)
Oscoda-Wurtsmith

Weather History for KOSC - January, 2014

Change the Weather History Date:

Sunday, January 19, 2014

  Actual Average Record
Temperature  
Mean Temperature 24 °F -  
Max Temperature 30 °F 24 °F 37 °F (2013)
Min Temperature 18 °F 9 °F -5 °F (2016)
Degree Days  
Heating Degree Days 41    
Moisture  
Dew Point 21 °F    
Average Humidity 84    
Maximum Humidity 93    
Minimum Humidity 77    
Precipitation  
Precipitation 0.01 in - - ()
Sea Level Pressure  
Sea Level Pressure 29.48 in    
Wind  
Wind Speed 13 mph (WSW)    
Max Wind Speed 28 mph    
Max Gust Speed 34 mph    
Visibility 9 miles    
Events Snow    
Averages and records for this station are not official NWS values.
T = Trace of Precipitation, MM = Missing Value Source: NWS Daily Summary

Daily Weather History Graph

Daily Weather History Graph

Search for Another Location

Airport or City:

Astronomy

Jan. 19, 2014 Rise Set
Actual Time 8:03 AM EST 5:25 PM EST
Civil Twilight 7:31 AM EST 5:57 PM EST
Nautical Twilight 6:56 AM EST 6:32 PM EST
Astronomical Twilight 6:21 AM EST 7:07 PM EST
Moon 9:12 PM EST (1/19) 9:24 AM EST (1/19)
Length of Visible Light 10h 25m
Length of Day
9h 21m
Waning Gibbous, 89% of the Moon is Illuminated
Jan 19
Waning Gibbous
Jan 24
Last Quarter
Jan 30
New
Feb 6
First Quarter
Feb 14
Full

Hourly Weather History & Observations

Time (EST) Temp. Windchill Dew Point Humidity Pressure Visibility Wind Dir Wind Speed Gust Speed Precip Events Conditions
12:13 AM 21.6 °F 11.3 °F 18.5 °F 88% 29.72 in 7.0 mi SW 9.2 mph - N/A   Overcast
12:34 AM 21.2 °F 10.1 °F 17.6 °F 86% 29.70 in 7.0 mi SW 10.4 mph - N/A   Overcast
12:54 AM 21.2 °F 10.9 °F 17.2 °F 85% 29.69 in 10.0 mi SW 9.2 mph - N/A   Overcast
1:13 AM 21.2 °F 9.5 °F 16.7 °F 83% 29.68 in 10.0 mi SW 11.5 mph - N/A   Overcast
1:34 AM 21.2 °F 10.9 °F 15.8 °F 80% 29.67 in 10.0 mi SW 9.2 mph - N/A   Overcast
1:54 AM 20.8 °F 10.4 °F 15.4 °F 80% 29.66 in 10.0 mi SSW 9.2 mph - N/A   Overcast
2:13 AM 20.5 °F 10.8 °F 14.5 °F 78% 29.65 in 10.0 mi SSW 8.1 mph - N/A   Overcast
2:34 AM 19.9 °F 7.3 °F 13.8 °F 77% 29.64 in 10.0 mi SSW 12.7 mph 18.4 mph N/A   Overcast
2:54 AM 18.7 °F 6.3 °F 13.3 °F 79% 29.64 in 10.0 mi SW 11.5 mph - N/A   Overcast
3:13 AM 18.5 °F 5.5 °F 12.9 °F 79% 29.63 in 10.0 mi SW 12.7 mph - N/A   Mostly Cloudy
3:34 AM 18.5 °F 5.5 °F 13.3 °F 80% 29.62 in 10.0 mi SW 12.7 mph - N/A Snow Light Snow
3:54 AM 18.1 °F 5.0 °F 12.9 °F 80% 29.62 in 10.0 mi SW 12.7 mph - N/A   Overcast
4:13 AM 18.3 °F 4.6 °F 13.1 °F 80% 29.60 in 10.0 mi SW 13.8 mph 19.6 mph N/A Snow Light Snow
4:34 AM 18.5 °F 5.5 °F 13.5 °F 81% 29.59 in 10.0 mi SW 12.7 mph - N/A   Overcast
4:54 AM 18.3 °F 6.6 °F 13.1 °F 80% 29.58 in 10.0 mi SSW 10.4 mph - N/A   Mostly Cloudy
5:13 AM 18.0 °F 4.8 °F 13.1 °F 81% 29.56 in 10.0 mi SSW 12.7 mph - N/A   Mostly Cloudy
5:34 AM 18.1 °F 4.4 °F 13.6 °F 83% 29.55 in 10.0 mi SSW 13.8 mph 20.7 mph N/A   Overcast
5:54 AM 18.0 °F 2.2 °F 14.0 °F 84% 29.52 in 10.0 mi SSW 18.4 mph 23.0 mph N/A   Overcast
6:13 AM 18.5 °F 2.4 °F 14.9 °F 86% 29.51 in 10.0 mi SW 19.6 mph - N/A   Overcast
6:34 AM 18.5 °F 2.0 °F 15.3 °F 87% 29.48 in 7.0 mi SSW 20.7 mph 27.6 mph N/A   Mostly Cloudy
6:54 AM 19.0 °F 2.7 °F 15.8 °F 87% 29.47 in 7.0 mi SSW 20.7 mph - N/A   Mostly Cloudy
7:13 AM 19.2 °F 4.3 °F 15.8 °F 87% 29.46 in 10.0 mi SSW 17.3 mph 25.3 mph N/A   Overcast
7:34 AM 19.4 °F 5.0 °F 16.2 °F 87% 29.45 in 10.0 mi SSW 16.1 mph 21.9 mph N/A   Overcast
7:54 AM 20.3 °F 6.1 °F 16.7 °F 86% 29.43 in 7.0 mi SSW 16.1 mph - N/A Snow Light Snow
8:13 AM 21.0 °F 6.6 °F 17.6 °F 87% 29.40 in 3.0 mi SSW 17.3 mph 25.3 mph N/A Snow Light Snow
8:34 AM 22.1 °F 7.2 °F 18.5 °F 86% 29.39 in 7.0 mi SW 19.6 mph 25.3 mph N/A   Overcast
8:54 AM 22.8 °F 7.0 °F 18.9 °F 85% 29.38 in 4.0 mi SW 23.0 mph 32.2 mph N/A   Overcast
9:13 AM 23.2 °F 8.2 °F 19.2 °F 85% 29.37 in 5.0 mi SW 20.7 mph 29.9 mph N/A   Overcast
9:34 AM 23.9 °F 7.2 °F 19.8 °F 84% 29.36 in 4.0 mi SW 27.6 mph 33.4 mph N/A   Overcast
9:54 AM 24.8 °F 9.3 °F 20.3 °F 83% 29.37 in 5.0 mi SW 24.2 mph 34.5 mph N/A   Haze
10:13 AM 25.3 °F 12.2 °F 21.0 °F 84% 29.38 in 7.0 mi SW 17.3 mph - N/A   Overcast
10:34 AM 26.2 °F 13.0 °F 22.1 °F 84% 29.39 in 5.0 mi WSW 18.4 mph 32.2 mph N/A   Overcast
10:54 AM 26.6 °F 14.3 °F 22.1 °F 83% 29.39 in 10.0 mi WSW 16.1 mph 26.5 mph N/A   Overcast
11:13 AM 27.0 °F 13.9 °F 22.1 °F 82% 29.39 in 10.0 mi SW 18.4 mph 23.0 mph N/A   Overcast
11:34 AM 27.3 °F 15.6 °F 22.6 °F 83% 29.38 in 10.0 mi SW 15.0 mph - N/A   Overcast
11:53 AM 27.5 °F 15.9 °F 23.0 °F 83% 29.38 in 10.0 mi WSW 15.0 mph - N/A   Overcast
12:13 PM 28.4 °F 17.0 °F 23.2 °F 81% 29.37 in 10.0 mi WSW 15.0 mph 20.7 mph N/A   Overcast
12:34 PM 29.3 °F 17.0 °F 23.7 °F 80% 29.37 in 10.0 mi West 18.4 mph 26.5 mph N/A   Overcast
12:53 PM 29.3 °F 16.6 °F 24.1 °F 81% 29.36 in 10.0 mi West 19.6 mph 26.5 mph N/A   Overcast
1:14 PM 29.7 °F 17.8 °F 24.4 °F 81% 29.36 in 10.0 mi West 17.3 mph 21.9 mph N/A   Overcast
1:34 PM 29.8 °F 17.7 °F 24.4 °F 80% 29.37 in 10.0 mi West 18.4 mph 24.2 mph N/A   Overcast
1:53 PM 30.0 °F 18.3 °F 24.3 °F 79% 29.37 in 10.0 mi West 17.3 mph 25.3 mph N/A   Overcast
2:14 PM 30.0 °F 19.5 °F 24.3 °F 79% 29.37 in 7.0 mi West 13.8 mph 24.2 mph N/A   Overcast
2:34 PM 30.0 °F 20.0 °F 24.3 °F 79% 29.38 in 10.0 mi West 12.7 mph 19.6 mph N/A   Overcast
2:53 PM 29.8 °F 20.3 °F 24.4 °F 80% 29.40 in 10.0 mi West 11.5 mph 18.4 mph N/A   Overcast
3:14 PM 30.0 °F 18.7 °F 24.6 °F 80% 29.41 in 10.0 mi West 16.1 mph - N/A   Overcast
3:34 PM 29.8 °F 20.9 °F 24.6 °F 81% 29.40 in 10.0 mi WSW 10.4 mph - N/A   Overcast
3:53 PM 30.2 °F 21.9 °F 24.6 °F 80% 29.41 in 10.0 mi West 9.2 mph - N/A   Overcast
4:14 PM 29.8 °F 20.9 °F 24.8 °F 81% 29.41 in 10.0 mi West 10.4 mph - N/A   Overcast
4:34 PM 29.8 °F 20.9 °F 24.8 °F 81% 29.43 in 10.0 mi WSW 10.4 mph - N/A   Overcast
4:53 PM 29.8 °F 21.5 °F 25.2 °F 83% 29.43 in 10.0 mi WSW 9.2 mph - N/A   Overcast
5:14 PM 29.8 °F 21.5 °F 25.5 °F 84% 29.44 in 10.0 mi WSW 9.2 mph - N/A   Overcast
5:34 PM 29.8 °F 21.5 °F 25.5 °F 84% 29.45 in 10.0 mi WSW 9.2 mph - N/A   Overcast
5:53 PM 29.7 °F 22.8 °F 25.5 °F 85% 29.45 in 10.0 mi SW 6.9 mph - N/A   Overcast
6:14 PM 29.8 °F 21.5 °F 25.5 °F 84% 29.45 in 10.0 mi SW 9.2 mph - N/A   Overcast
6:33 PM 29.8 °F 20.9 °F 25.7 °F 85% 29.47 in 10.0 mi WSW 10.4 mph - N/A   Overcast
6:53 PM 29.7 °F 22.0 °F 26.1 °F 86% 29.46 in 10.0 mi SW 8.1 mph - N/A   Overcast
7:14 PM 29.7 °F 22.0 °F 25.7 °F 85% 29.47 in 10.0 mi SW 8.1 mph - N/A   Overcast
7:33 PM 29.7 °F 22.0 °F 25.9 °F 86% 29.47 in 10.0 mi SW 8.1 mph - N/A   Overcast
7:53 PM 29.8 °F 22.2 °F 25.7 °F 85% 29.47 in 10.0 mi SSW 8.1 mph - N/A   Overcast
8:14 PM 29.8 °F 21.5 °F 25.9 °F 85% 29.48 in 10.0 mi SW 9.2 mph - N/A   Overcast
8:33 PM 29.8 °F 22.2 °F 26.1 °F 86% 29.48 in 10.0 mi SW 8.1 mph - N/A   Overcast
8:53 PM 30.0 °F 22.4 °F 26.1 °F 85% 29.47 in 10.0 mi SW 8.1 mph - N/A   Overcast
9:14 PM 28.4 °F 21.2 °F 23.9 °F 83% 29.48 in 10.0 mi NE 6.9 mph - N/A   Overcast
9:33 PM 27.5 °F 19.3 °F 23.4 °F 84% 29.48 in 10.0 mi NNE 8.1 mph - N/A   Overcast
9:53 PM 26.1 °F 16.8 °F 22.6 °F 87% 29.48 in 7.0 mi NNE 9.2 mph - N/A   Overcast
10:14 PM 25.5 °F 16.9 °F 22.6 °F 89% 29.49 in 2.5 mi NNE 8.1 mph - N/A Snow Light Snow
10:33 PM 24.8 °F 17.9 °F 22.5 °F 91% 29.49 in 2.5 mi NNE 5.8 mph - N/A Snow Light Snow
10:54 PM 24.4 °F 17.5 °F 22.6 °F 93% 29.50 in 2.5 mi NNW 5.8 mph - 0.01 in Snow Light Snow
11:14 PM 23.9 °F 15.8 °F 21.2 °F 89% 29.50 in 5.0 mi North 6.9 mph - N/A Snow Light Snow
11:33 PM 23.7 °F 16.6 °F 21.2 °F 90% 29.50 in 7.0 mi North 5.8 mph - N/A Snow Light Snow
11:54 PM 23.4 °F 16.2 °F 20.8 °F 90% 29.50 in 10.0 mi North 5.8 mph - N/A Snow Light Snow